Time;durP1;ratioP1;P1;durP2;ratioP2;P2;SDS_P1;SDS_P2;PMS_P1;PMS_P2;Temp;Humidity;BMP_temperature;BMP_pressure;BME280_temperature;BME280_humidity;BME280_pressure;Samples;Min_cycle;Max_cycle;Signal;HPM_P1;HPM_P2
2022/11/04 00:01:50;;;;;;;4.03;2.95;;;;;;;14.33;62.33;98158.09;5010818;28;20077;-48
2022/11/04 00:04:19;;;;;;;4.40;3.20;;;;;;;14.34;62.50;98159.75;5011086;28;20046;-50
2022/11/04 00:06:46;;;;;;;6.38;3.30;;;;;;;14.36;62.56;98157.81;4993675;28;20097;-51
2022/11/04 00:09:21;;;;;;;4.07;3.47;;;;;;;14.32;63.79;98167.84;5010937;28;20053;-54
2022/11/04 00:14:34;;;;;;;5.20;3.35;;;;;;;14.33;62.65;98168.69;5011013;28;20084;-49
2022/11/04 00:33:45;;;;;;;3.50;2.15;;;;;;;14.12;62.90;98220.06;5010678;28;20045;-50
2022/11/04 00:36:12;;;;;;;4.47;2.20;;;;;;;14.07;62.50;98236.41;5131828;23;20492;-59
2022/11/04 00:38:38;;;;;;;3.88;2.63;;;;;;;14.02;62.68;98243.94;5002525;28;20399;-61
2022/11/04 00:41:24;;;;;;;2.22;2.03;;;;;;;13.97;62.64;98238.25;4992412;28;20164;-60
2022/11/04 00:43:55;;;;;;;2.20;1.67;;;;;;;13.90;63.06;98259.19;4991037;28;20046;-61
2022/11/04 00:46:22;;;;;;;2.80;1.98;;;;;;;13.86;62.57;98241.94;4991092;28;20050;-61
2022/11/04 00:48:49;;;;;;;1.95;1.67;;;;;;;13.83;62.77;98246.69;4990130;28;20046;-61
2022/11/04 00:51:15;;;;;;;2.45;1.50;;;;;;;13.79;62.92;98251.41;4997608;28;20050;-60
2022/11/04 00:53:42;;;;;;;1.90;1.60;;;;;;;13.76;62.84;98243.78;4991079;28;20447;-60
2022/11/04 00:56:08;;;;;;;1.40;1.13;;;;;;;13.72;62.72;98239.78;4973236;28;20105;-60
2022/11/04 00:58:35;;;;;;;2.88;1.33;;;;;;;13.68;62.60;98228.63;4990901;28;20570;-61
2022/11/04 01:01:18;;;;;;;2.80;1.40;;;;;;;13.60;63.48;98237.31;4990644;28;20090;-61
2022/11/04 01:03:47;;;;;;;1.40;1.25;;;;;;;13.61;62.79;98257.47;4991179;28;20061;-61
2022/11/04 01:06:14;;;;;;;2.25;1.20;;;;;;;13.59;62.83;98274.44;4990493;28;20093;-60
2022/11/04 01:08:40;;;;;;;1.10;1.00;;;;;;;13.55;62.64;98276.56;4991074;28;20046;-60
2022/11/04 01:11:08;;;;;;;1.27;0.95;;;;;;;13.53;62.60;98283.81;4990788;28;20527;-59
2022/11/04 01:13:36;;;;;;;2.22;1.10;;;;;;;13.48;62.70;98289.50;4993866;28;20062;-59
2022/11/04 01:16:05;;;;;;;2.53;1.20;;;;;;;13.45;62.71;98295.03;4976672;28;20518;-60
2022/11/04 01:18:32;;;;;;;1.15;0.90;;;;;;;13.41;62.71;98283.09;4994738;28;20054;-61
2022/11/04 01:21:03;;;;;;;1.33;1.13;;;;;;;13.37;63.11;98293.13;4994005;28;20062;-60
2022/11/04 01:23:29;;;;;;;1.10;1.00;;;;;;;13.36;62.57;98315.25;4994609;28;20515;-60
2022/11/04 01:25:56;;;;;;;1.85;0.90;;;;;;;13.34;62.40;98298.69;4993992;28;20077;-61
2022/11/04 01:28:22;;;;;;;1.08;0.98;;;;;;;13.31;62.58;98288.41;4994581;28;20418;-60
2022/11/04 01:30:48;;;;;;;1.13;1.02;;;;;;;13.28;62.55;98283.41;4993988;28;20054;-61
2022/11/04 01:33:15;;;;;;;1.42;1.20;;;;;;;13.25;62.66;98295.09;4994396;28;20081;-62
2022/11/04 01:35:42;;;;;;;1.20;1.05;;;;;;;13.24;62.47;98290.75;4993545;28;20082;-60
2022/11/04 01:38:08;;;;;;;1.95;1.20;;;;;;;13.22;62.48;98297.16;4976823;28;20074;-60
2022/11/04 01:40:37;;;;;;;1.75;1.20;;;;;;;13.18;62.67;98303.69;4993908;28;20128;-59
2022/11/04 01:43:17;;;;;;;1.80;1.10;;;;;;;13.15;62.98;98310.09;4976978;28;20054;-60
2022/11/04 01:45:47;;;;;;;2.05;1.25;;;;;;;13.14;62.76;98314.56;4993533;28;20113;-60
2022/11/04 01:48:40;;;;;;;2.60;1.90;;;;;;;13.09;63.73;98327.34;4985899;28;20054;-62
2022/11/04 01:51:07;;;;;;;2.35;2.00;;;;;;;13.13;62.93;98323.44;4981144;28;20054;-60
2022/11/04 01:53:39;;;;;;;7.20;2.45;;;;;;;13.09;63.64;98323.88;4992623;28;20487;-60
2022/11/04 01:56:10;;;;;;;3.00;2.40;;;;;;;13.09;63.20;98319.41;4993772;28;20058;-60
2022/11/04 01:58:50;;;;;;;2.97;2.17;;;;;;;13.07;64.03;98331.09;4993887;28;20509;-61
2022/11/04 02:01:17;;;;;;;2.85;1.88;;;;;;;13.09;63.07;98329.97;4993974;28;20403;-60
2022/11/04 02:03:54;;;;;;;3.08;2.50;;;;;;;13.07;63.90;98339.88;4993665;28;20055;-59
2022/11/04 02:06:21;;;;;;;4.18;2.50;;;;;;;13.09;63.14;98327.34;4993587;28;20058;-61
2022/11/04 02:08:48;;;;;;;4.05;3.42;;;;;;;13.10;63.38;98322.91;4976569;28;20451;-60
2022/11/04 02:12:48;;;;;;;4.03;3.63;;;;;;;13.10;63.49;98342.25;4993847;28;20452;-60
2022/11/04 02:14:01;;;;;;;3.55;3.22;;;;;;;13.11;63.43;98341.25;4993646;28;20046;-60
2022/11/04 02:16:44;;;;;;;5.22;3.88;;;;;;;13.07;64.52;98342.50;4993314;28;20500;-59
2022/11/04 02:19:28;;;;;;;4.22;3.65;;;;;;;13.07;64.60;98342.50;4993856;28;20054;-60
2022/11/04 02:22:24;;;;;;;4.47;3.47;;;;;;;13.06;64.52;98359.34;4993690;28;20451;-60
2022/11/04 02:25:08;;;;;;;4.85;3.80;;;;;;;13.08;64.08;98360.03;4992525;28;20093;-60
2022/11/04 02:27:46;;;;;;;4.13;3.70;;;;;;;13.05;65.20;98362.97;4993451;28;20139;-60
2022/11/04 02:30:16;;;;;;;6.60;3.70;;;;;;;13.09;64.10;98363.50;4993487;28;20078;-61
2022/11/04 02:32:54;;;;;;;5.43;4.18;;;;;;;13.07;64.61;98363.66;4993328;28;20054;-62
2022/11/04 02:35:30;;;;;;;5.13;3.95;;;;;;;13.09;64.30;98369.63;4993039;28;20463;-61
2022/11/04 02:38:09;;;;;;;4.82;4.22;;;;;;;13.09;64.43;98377.53;4993232;28;20581;-61
2022/11/04 02:40:54;;;;;;;4.68;4.28;;;;;;;13.11;64.28;98372.13;4992931;28;20391;-60
2022/11/04 02:43:42;;;;;;;4.78;4.38;;;;;;;13.13;63.87;98376.28;4993182;28;20112;-61
2022/11/04 02:46:17;;;;;;;4.82;4.20;;;;;;;13.15;63.54;98365.59;4992868;28;20042;-61
2022/11/04 02:48:56;;;;;;;4.90;4.28;;;;;;;13.12;64.22;98371.16;4993009;28;20050;-60
2022/11/04 02:51:39;;;;;;;5.30;4.28;;;;;;;13.11;64.06;98372.97;4975801;28;20112;-61
2022/11/04 02:54:21;;;;;;;4.65;4.25;;;;;;;13.12;64.32;98387.03;4992787;28;20416;-60
2022/11/04 02:56:50;;;;;;;5.05;4.50;;;;;;;13.13;63.77;98386.84;4991472;28;20043;-63
2022/11/04 02:59:28;;;;;;;4.90;4.50;;;;;;;13.13;63.83;98397.44;4975374;28;20097;-60
2022/11/04 03:01:57;;;;;;;4.93;3.95;;;;;;;13.15;63.25;98390.22;4992712;28;20073;-61
2022/11/04 03:04:29;;;;;;;4.57;4.00;;;;;;;13.13;63.67;98386.84;4992742;28;20050;-63
2022/11/04 03:06:57;;;;;;;6.40;3.88;;;;;;;13.14;63.36;98396.47;4974897;28;20089;-60
2022/11/04 03:09:27;;;;;;;4.18;3.85;;;;;;;13.13;63.30;98399.25;4975176;28;20593;-63
2022/11/04 03:12:00;;;;;;;3.85;3.30;;;;;;;13.12;63.33;98398.41;4992669;28;20055;-62
2022/11/04 03:14:35;;;;;;;5.88;3.65;;;;;;;13.11;63.09;98393.25;4992659;28;20502;-63
2022/11/04 03:17:06;;;;;;;3.88;3.30;;;;;;;13.09;62.74;98390.75;4992331;28;20090;-62
2022/11/04 03:19:53;;;;;;;3.72;2.90;;;;;;;13.06;62.54;98387.56;4992327;28;20058;-61
2022/11/04 03:22:22;;;;;;;3.95;3.00;;;;;;;13.04;62.12;98392.97;4992319;28;20101;-60
2022/11/04 03:24:50;;;;;;;6.55;3.65;;;;;;;12.99;62.03;98382.00;4992180;28;20050;-62
2022/11/04 03:27:48;;;;;;;3.22;2.95;;;;;;;12.89;62.32;98396.03;4992298;28;20104;-61
2022/11/04 03:30:18;;;;;;;3.42;3.10;;;;;;;12.88;61.99;98397.00;4992382;28;20050;-61
2022/11/04 03:32:44;;;;;;;4.18;3.50;;;;;;;12.82;61.86;98397.53;4992223;28;20050;-61
2022/11/04 03:35:12;;;;;;;3.55;3.25;;;;;;;12.76;61.82;98406.81;4992061;28;20092;-61
2022/11/04 03:37:38;;;;;;;3.38;3.08;;;;;;;12.70;61.93;98404.72;4990599;28;20104;-60
2022/11/04 03:40:06;;;;;;;4.20;3.22;;;;;;;12.65;61.89;98420.16;4991896;28;20050;-61
2022/11/04 03:42:37;;;;;;;3.67;3.10;;;;;;;12.59;62.22;98423.31;4992113;28;20086;-61
2022/11/04 03:45:04;;;;;;;8.95;4.43;;;;;;;12.57;62.30;98433.16;4974500;28;20061;-61
2022/11/04 03:47:31;;;;;;;4.45;4.05;;;;;;;12.53;62.50;98443.16;4991981;28;20090;-62
2022/11/04 03:50:26;;;;;;;4.63;3.95;;;;;;;12.47;63.23;98441.03;4974731;28;20170;-61
2022/11/04 03:52:53;;;;;;;4.38;3.97;;;;;;;12.50;62.70;98446.06;4991852;28;20058;-61
2022/11/04 03:55:27;;;;;;;5.40;4.50;;;;;;;12.49;62.73;98454.97;4992069;28;20085;-61
2022/11/04 03:58:05;;;;;;;5.53;5.03;;;;;;;12.48;62.98;98451.47;4990836;28;20052;-60
2022/11/04 04:00:39;;;;;;;5.35;4.72;;;;;;;12.48;62.79;98446.19;4982403;28;20086;-60
2022/11/04 04:03:15;;;;;;;5.40;4.90;;;;;;;12.51;62.60;98453.00;4991681;28;20046;-61
2022/11/04 04:06:16;;;;;;;6.72;5.25;;;;;;;12.44;63.35;98449.22;4991938;28;20046;-60
2022/11/04 04:08:59;;;;;;;6.53;5.65;;;;;;;12.45;63.15;98453.56;4959762;28;20061;-61
2022/11/04 04:11:50;;;;;;;6.68;6.00;;;;;;;12.43;63.35;98463.38;4991730;28;20085;-62
2022/11/04 04:14:40;;;;;;;7.13;6.47;;;;;;;12.41;63.10;98457.41;4991842;28;20050;-61
2022/11/04 04:17:17;;;;;;;8.07;7.28;;;;;;;12.42;63.01;98461.72;4991438;28;20535;-60
2022/11/04 04:19:54;;;;;;;8.63;7.70;;;;;;;12.41;63.15;98465.34;4991459;28;20108;-61
2022/11/04 04:22:25;;;;;;;8.95;7.80;;;;;;;12.42;62.72;98469.63;4991797;28;20158;-59
2022/11/04 04:27:42;;;;;;;8.93;7.68;;;;;;;12.44;63.00;98478.25;4991407;28;20146;-61
2022/11/04 04:30:15;;;;;;;10.63;7.80;;;;;;;12.42;63.24;98480.19;4991262;28;20561;-61
2022/11/04 04:32:49;;;;;;;10.35;8.45;;;;;;;12.44;63.15;98479.09;4974301;28;20082;-60
2022/11/04 04:46:44;;;;;;;9.07;7.40;;;;;;;12.53;62.63;98501.25;4991308;28;20415;-60
2022/11/04 04:49:10;;;;;;;8.40;7.57;;;;;;;12.55;62.58;98501.06;4995069;28;20547;-61
2022/11/04 04:51:43;;;;;;;9.57;7.88;;;;;;;12.54;62.91;98499.41;4995303;28;20081;-59
2022/11/04 04:54:10;;;;;;;10.63;8.60;;;;;;;12.56;62.85;98502.78;4994080;28;20054;-61
2022/11/04 04:56:37;;;;;;;9.30;7.55;;;;;;;12.57;62.81;98512.34;4994997;28;20050;-60
2022/11/04 04:59:04;;;;;;;9.65;7.72;;;;;;;12.57;62.84;98507.94;4994709;28;20090;-60
2022/11/04 05:01:31;;;;;;;9.25;7.63;;;;;;;12.57;62.69;98507.94;4994959;28;20046;-61
2022/11/04 05:03:57;;;;;;;8.82;7.50;;;;;;;12.60;62.72;98514.75;4994914;28;20105;-60
2022/11/04 05:06:24;;;;;;;11.43;7.85;;;;;;;12.61;62.59;98511.13;4994982;28;20053;-61
2022/11/04 05:08:50;;;;;;;8.80;7.82;;;;;;;12.59;62.44;98527.09;4994684;28;20050;-61
2022/11/04 05:11:16;;;;;;;8.73;7.57;;;;;;;12.58;62.43;98525.44;4994822;28;20495;-61
2022/11/04 05:13:49;;;;;;;10.80;7.97;;;;;;;12.58;62.78;98530.72;4994745;28;20065;-61
2022/11/04 05:16:15;;;;;;;8.98;6.90;;;;;;;12.59;62.62;98529.72;4977491;28;20050;-60
2022/11/04 05:18:42;;;;;;;8.05;7.25;;;;;;;12.59;62.72;98535.00;4994656;28;20121;-60
2022/11/04 05:21:13;;;;;;;9.00;7.55;;;;;;;12.59;62.67;98537.66;4994753;28;20096;-61
2022/11/04 05:23:40;;;;;;;8.98;7.85;;;;;;;12.61;62.45;98548.09;4994639;28;20054;-61
2022/11/04 05:26:06;;;;;;;8.63;7.70;;;;;;;12.60;62.67;98544.59;4994554;28;20058;-59
2022/11/04 05:28:32;;;;;;;10.80;7.72;;;;;;;12.61;62.45;98551.56;4994254;28;20529;-61
2022/11/04 05:31:04;;;;;;;9.93;7.68;;;;;;;12.60;62.66;98555.16;4994564;28;20141;-60
2022/11/04 05:33:30;;;;;;;10.68;8.13;;;;;;;12.62;62.41;98553.25;4994325;28;20050;-60
2022/11/04 05:36:10;;;;;;;12.63;7.90;;;;;;;12.59;62.70;98566.69;4994142;28;20046;-61
2022/11/04 05:38:37;;;;;;;8.38;7.40;;;;;;;12.63;62.34;98573.38;4984957;28;20093;-61
2022/11/04 05:41:05;;;;;;;9.95;8.57;;;;;;;12.61;62.31;98583.25;4988160;28;20384;-62
2022/11/04 05:43:32;;;;;;;10.68;9.02;;;;;;;12.63;62.24;98581.31;4994291;28;20104;-61
2022/11/04 05:45:59;;;;;;;9.88;7.80;;;;;;;12.62;61.99;98578.78;4994186;28;20101;-61
2022/11/04 05:48:26;;;;;;;9.50;8.05;;;;;;;12.60;62.15;98581.56;4976831;28;20054;-61
2022/11/04 05:50:53;;;;;;;9.32;8.07;;;;;;;12.58;62.18;98575.59;4994166;28;20550;-60
2022/11/04 05:53:20;;;;;;;10.80;8.65;;;;;;;12.57;62.17;98579.19;4976568;28;20050;-60
2022/11/04 05:55:46;;;;;;;8.52;7.65;;;;;;;12.56;62.09;98582.78;4994091;28;20058;-60
2022/11/04 05:58:13;;;;;;;8.02;7.22;;;;;;;12.55;62.15;98583.75;4993502;28;20078;-60
2022/11/04 06:00:39;;;;;;;10.02;8.35;;;;;;;12.54;62.15;98587.38;4993138;28;20051;-62
2022/11/04 06:03:05;;;;;;;10.27;8.25;;;;;;;12.53;62.05;98587.50;4994034;28;20872;-60
2022/11/04 06:05:37;;;;;;;9.32;8.10;;;;;;;12.52;61.89;98599.84;4993796;28;20066;-60
2022/11/04 06:08:04;;;;;;;12.15;8.60;;;;;;;12.50;61.96;98597.34;4993494;28;20104;-60
2022/11/04 06:10:30;;;;;;;11.00;8.13;;;;;;;12.49;61.90;98611.50;4993871;28;20054;-60
2022/11/04 06:12:56;;;;;;;16.10;8.70;;;;;;;12.47;62.00;98621.38;4993812;28;20494;-60
2022/11/04 06:15:23;;;;;;;9.18;8.15;;;;;;;12.46;62.05;98626.75;4993571;28;20185;-61
2022/11/04 06:17:49;;;;;;;8.23;7.38;;;;;;;12.46;62.17;98626.75;4993591;28;20054;-60
2022/11/04 06:20:15;;;;;;;8.15;7.32;;;;;;;12.45;62.10;98630.38;4993634;28;20134;-60
2022/11/04 06:22:42;;;;;;;9.75;7.22;;;;;;;12.46;62.21;98634.69;4993063;28;20050;-60
2022/11/04 06:25:08;;;;;;;10.32;7.60;;;;;;;12.45;62.24;98644.38;4993279;28;20120;-60
2022/11/04 06:27:35;;;;;;;10.95;8.68;;;;;;;12.46;62.28;98648.72;4993667;28;20112;-62
2022/11/04 06:30:01;;;;;;;10.20;8.02;;;;;;;12.47;62.14;98652.19;4993006;28;20078;-61
2022/11/04 06:32:28;;;;;;;8.80;7.82;;;;;;;12.46;62.19;98650.53;4975670;28;20058;-61
2022/11/04 06:34:54;;;;;;;10.43;8.55;;;;;;;12.46;62.16;98658.44;4992937;28;20081;-61
2022/11/04 06:37:20;;;;;;;10.20;8.63;;;;;;;12.46;62.23;98650.53;4993035;28;20050;-60
2022/11/04 06:39:47;;;;;;;11.18;8.20;;;;;;;12.46;62.17;98661.06;4993058;28;20553;-60
2022/11/04 06:42:13;;;;;;;10.07;7.80;;;;;;;12.46;62.39;98658.44;4993176;28;20297;-60
2022/11/04 06:44:39;;;;;;;11.48;7.95;;;;;;;12.43;62.28;98663.97;4993046;28;20050;-60
2022/11/04 06:47:06;;;;;;;11.10;7.95;;;;;;;12.43;62.26;98669.25;4992906;28;20054;-62
2022/11/04 06:49:33;;;;;;;11.70;8.65;;;;;;;12.42;62.28;98657.00;4986874;28;20051;-61
2022/11/04 06:52:01;;;;;;;13.77;8.57;;;;;;;12.42;62.32;98673.69;4992363;28;20491;-60
2022/11/04 06:54:27;;;;;;;8.35;7.30;;;;;;;12.41;62.20;98668.53;4992958;28;20111;-60
2022/11/04 06:56:54;;;;;;;11.23;8.20;;;;;;;12.40;62.26;98680.06;4992510;28;20046;-61
2022/11/04 06:59:20;;;;;;;9.73;8.00;;;;;;;12.38;62.31;98681.00;4992989;28;20054;-60
2022/11/04 07:01:48;;;;;;;10.55;8.27;;;;;;;12.38;62.64;98685.47;4992606;28;20134;-61
2022/11/04 07:04:15;;;;;;;12.20;8.40;;;;;;;12.40;62.54;98687.97;4992645;28;20060;-61
2022/11/04 07:06:42;;;;;;;11.90;8.35;;;;;;;12.40;62.51;98687.97;4991279;28;20082;-61
2022/11/04 07:09:12;;;;;;;11.07;8.85;;;;;;;12.37;62.52;98689.91;4992706;28;20089;-61
2022/11/04 07:11:40;;;;;;;13.15;8.50;;;;;;;12.41;62.39;98708.13;4975006;28;20073;-60
2022/11/04 07:14:07;;;;;;;11.43;7.80;;;;;;;12.41;62.44;98711.59;4992673;28;20112;-60
2022/11/04 07:16:34;;;;;;;12.77;8.40;;;;;;;12.41;62.62;98708.94;4991919;28;20606;-62
2022/11/04 07:19:01;;;;;;;12.15;8.82;;;;;;;12.42;62.57;98715.06;4992311;28;20116;-60
2022/11/04 07:21:27;;;;;;;10.93;8.48;;;;;;;12.43;62.48;98711.47;4992056;28;20054;-60
2022/11/04 07:23:54;;;;;;;11.38;8.07;;;;;;;12.44;62.59;98721.06;4974614;28;20082;-60
2022/11/04 07:26:20;;;;;;;12.23;8.43;;;;;;;12.45;62.64;98717.47;4992374;28;20086;-61
2022/11/04 07:28:47;;;;;;;12.98;8.48;;;;;;;12.45;62.76;98718.28;4990185;28;20458;-60
2022/11/04 07:31:14;;;;;;;12.68;8.98;;;;;;;12.46;62.40;98721.78;4972331;28;20086;-61
2022/11/04 07:33:41;;;;;;;11.45;8.68;;;;;;;12.47;62.38;98726.09;4989668;28;20046;-61
2022/11/04 07:36:11;;;;;;;13.82;9.75;;;;;;;12.45;62.53;98733.31;4989282;28;20138;-61
2022/11/04 07:38:38;;;;;;;14.50;9.15;;;;;;;12.46;62.34;98727.91;4972059;28;20133;-64
2022/11/04 07:41:04;;;;;;;11.20;8.80;;;;;;;12.43;62.28;98725.50;4990515;28;20054;-62
2022/11/04 07:43:31;;;;;;;13.63;9.18;;;;;;;12.42;62.09;98725.63;4973066;28;20108;-62
2022/11/04 07:46:02;;;;;;;13.02;8.90;;;;;;;12.36;62.58;98719.03;4990584;28;20050;-61
2022/11/04 07:48:29;;;;;;;11.13;8.57;;;;;;;12.35;62.30;98718.22;4973059;28;20058;-61
2022/11/04 07:50:59;;;;;;;11.65;8.63;;;;;;;12.32;62.69;98728.16;4996338;28;20089;-63
2022/11/04 07:53:27;;;;;;;12.55;8.52;;;;;;;12.32;62.44;98731.66;4990391;28;20085;-63
2022/11/04 07:55:53;;;;;;;10.18;8.30;;;;;;;12.31;62.56;98730.00;4990741;28;20158;-61
2022/11/04 07:58:21;;;;;;;9.18;7.47;;;;;;;12.30;62.61;98736.22;4991412;28;20133;-61
2022/11/04 08:00:48;;;;;;;15.77;9.07;;;;;;;12.29;62.70;98745.09;4991830;28;20112;-60
2022/11/04 08:03:14;;;;;;;11.90;8.60;;;;;;;12.29;62.88;98750.38;4991889;28;20058;-61
2022/11/04 08:05:41;;;;;;;10.07;8.30;;;;;;;12.29;62.78;98760.94;4991375;28;20050;-62
2022/11/04 08:08:07;;;;;;;12.60;8.00;;;;;;;12.30;62.84;98762.59;4974485;28;20050;-61
2022/11/04 08:10:34;;;;;;;13.00;7.95;;;;;;;12.32;62.79;98765.13;4991506;28;20054;-61
2022/11/04 08:13:01;;;;;;;10.07;7.03;;;;;;;12.32;62.79;98773.88;4991722;28;20478;-61
2022/11/04 08:15:28;;;;;;;10.65;7.18;;;;;;;12.33;62.87;98778.19;4991355;28;20129;-61
2022/11/04 08:17:54;;;;;;;11.02;7.38;;;;;;;12.36;62.75;98774.47;4974390;28;20054;-60
2022/11/04 08:20:20;;;;;;;10.30;7.10;;;;;;;12.37;62.81;98784.06;4991413;28;20132;-60
2022/11/04 08:22:47;;;;;;;7.72;6.30;;;;;;;12.38;62.76;98781.28;4993229;28;20141;-63
2022/11/04 08:25:13;;;;;;;9.15;6.03;;;;;;;12.41;63.05;98771.47;4995368;28;20097;-62
2022/11/04 08:27:39;;;;;;;8.35;6.55;;;;;;;12.45;63.14;98770.25;4995497;28;20571;-60
2022/11/04 08:30:07;;;;;;;11.90;6.97;;;;;;;12.48;63.05;98773.47;4995542;28;20112;-60
2022/11/04 08:32:34;;;;;;;12.00;6.72;;;;;;;12.51;62.92;98780.31;4995380;28;20096;-61
2022/11/04 08:35:00;;;;;;;9.07;6.03;;;;;;;12.54;62.69;98782.72;4995132;28;20054;-61
2022/11/04 08:37:26;;;;;;;10.77;6.20;;;;;;;12.55;62.70;98789.66;4995331;28;20050;-61
2022/11/04 08:39:53;;;;;;;9.07;5.95;;;;;;;12.59;62.83;98803.44;4995093;28;20511;-64
2022/11/04 08:42:19;;;;;;;9.07;5.88;;;;;;;12.61;63.12;98797.09;4994045;28;20050;-60
2022/11/04 08:44:50;;;;;;;13.95;5.82;;;;;;;12.65;63.73;98800.31;4995097;28;20082;-61
2022/11/04 08:47:17;;;;;;;11.45;5.78;;;;;;;12.75;63.71;98792.50;4995007;28;20137;-60
2022/11/04 08:49:43;;;;;;;9.63;6.60;;;;;;;12.85;63.57;98796.03;4995273;28;20426;-62
2022/11/04 08:52:09;;;;;;;8.77;5.57;;;;;;;12.95;63.59;98792.63;4994965;28;20105;-62
2022/11/04 08:54:36;;;;;;;8.98;5.28;;;;;;;13.04;63.35;98791.88;4995075;28;20090;-61
2022/11/04 08:57:03;;;;;;;13.48;6.10;;;;;;;13.13;62.91;98793.75;4993227;28;20046;-61
2022/11/04 08:59:29;;;;;;;10.90;5.55;;;;;;;13.21;62.65;98800.19;4995205;28;20085;-61
2022/11/04 09:01:55;;;;;;;9.40;5.05;;;;;;;13.26;62.31;98805.94;4994738;28;20146;-60
2022/11/04 09:04:22;;;;;;;8.52;4.97;;;;;;;13.29;62.29;98808.31;4994967;28;20043;-63
2022/11/04 09:06:50;;;;;;;10.85;5.15;;;;;;;13.31;62.15;98811.69;4994309;28;20074;-61
2022/11/04 09:09:17;;;;;;;12.65;5.15;;;;;;;13.33;62.19;98811.53;4994736;28;20047;-62
2022/11/04 09:11:45;;;;;;;11.13;5.00;;;;;;;13.34;61.84;98824.63;4994812;28;20054;-62
2022/11/04 09:14:11;;;;;;;8.05;4.60;;;;;;;13.34;61.63;98826.44;4994740;28;20651;-60
2022/11/04 09:16:39;;;;;;;9.00;4.70;;;;;;;13.34;61.86;98826.44;4994294;28;20069;-61
2022/11/04 09:19:06;;;;;;;12.43;4.75;;;;;;;13.34;61.85;98829.09;4977150;28;20569;-60
2022/11/04 09:21:33;;;;;;;9.55;5.03;;;;;;;13.34;61.76;98829.91;4994287;28;20046;-61
2022/11/04 09:23:59;;;;;;;9.63;5.10;;;;;;;13.35;61.96;98826.31;4994743;28;20061;-61
2022/11/04 09:26:26;;;;;;;8.10;5.10;;;;;;;13.39;62.16;98840.94;4994700;28;20104;-61
2022/11/04 09:28:54;;;;;;;6.80;4.47;;;;;;;13.43;62.21;98839.72;4994386;28;20058;-62
2022/11/04 09:31:21;;;;;;;9.13;4.65;;;;;;;13.50;61.98;98842.72;4994595;28;20038;-62
2022/11/04 09:33:49;;;;;;;10.65;4.88;;;;;;;13.56;62.04;98844.00;4993752;28;20104;-60
2022/11/04 09:36:15;;;;;;;9.43;4.50;;;;;;;13.62;61.83;98827.63;4994208;28;20062;-60
2022/11/04 09:38:43;;;;;;;6.38;4.07;;;;;;;13.68;61.51;98826.25;4993911;28;20089;-61
2022/11/04 09:41:34;;;;;;;6.53;3.90;;;;;;;13.71;61.01;98814.59;4994198;28;20093;-61
2022/11/04 09:44:24;;;;;;;10.30;4.13;;;;;;;13.75;60.67;98816.84;4994090;28;20058;-61
2022/11/04 09:46:56;;;;;;;9.02;4.18;;;;;;;13.80;60.80;98806.69;4993705;28;20097;-61
2022/11/04 09:49:26;;;;;;;7.93;4.50;;;;;;;13.81;61.09;98808.38;4976866;28;20125;-61
2022/11/04 09:51:55;;;;;;;6.20;4.20;;;;;;;13.85;61.00;98818.69;4976735;28;20623;-62
2022/11/04 09:54:39;;;;;;;5.72;4.10;;;;;;;13.86;60.89;98830.97;4993760;28;20100;-63
2022/11/04 09:57:16;;;;;;;8.88;4.65;;;;;;;13.88;60.64;98827.22;4993749;28;20061;-61
2022/11/04 09:59:43;;;;;;;7.43;4.32;;;;;;;13.90;60.39;98825.25;4993869;28;20491;-61
2022/11/04 10:02:09;;;;;;;12.48;4.55;;;;;;;13.92;60.51;98825.13;4960642;28;20061;-60
2022/11/04 10:04:57;;;;;;;7.28;4.20;;;;;;;13.90;60.67;98822.63;4993573;28;20054;-61
2022/11/04 10:07:46;;;;;;;5.75;4.18;;;;;;;13.98;61.41;98821.94;4976353;28;20046;-60
2022/11/04 10:10:17;;;;;;;10.82;4.82;;;;;;;14.06;60.70;98829.25;4992307;28;20492;-63
2022/11/04 10:13:01;;;;;;;10.27;3.78;;;;;;;14.16;61.12;98840.69;4993683;28;20419;-62
2022/11/04 10:15:27;;;;;;;6.28;4.13;;;;;;;14.28;61.02;98836.13;4993220;28;20055;-61
2022/11/04 10:18:08;;;;;;;5.97;3.60;;;;;;;14.34;60.42;98842.69;4993405;28;20454;-61
2022/11/04 10:21:13;;;;;;;7.57;4.05;;;;;;;14.41;60.01;98843.00;4993434;28;20074;-62
2022/11/04 10:23:44;;;;;;;12.43;4.45;;;;;;;14.49;59.88;98845.81;4993437;28;20085;-62
2022/11/04 10:26:35;;;;;;;7.53;4.05;;;;;;;14.49;59.82;98840.50;4975752;28;20054;-63
2022/11/04 10:29:05;;;;;;;7.57;3.83;;;;;;;14.55;59.35;98853.19;4993494;28;20092;-63
2022/11/04 10:31:37;;;;;;;6.97;3.67;;;;;;;14.56;59.21;98851.41;4993288;28;20054;-62
2022/11/04 10:34:20;;;;;;;7.18;4.03;;;;;;;14.54;nan;98851.53;4992092;28;20046;-62
2022/11/04 10:36:47;;;;;;;5.20;3.53;;;;;;;14.57;59.47;98853.91;4992565;28;20517;-62
2022/11/04 10:39:30;;;;;;;8.35;4.13;;;;;;;14.56;59.39;98859.34;4993305;28;20058;-62
2022/11/04 10:41:57;;;;;;;7.25;3.45;;;;;;;14.61;59.74;98857.13;4975771;28;20168;-62
2022/11/04 10:44:33;;;;;;;10.18;4.10;;;;;;;14.60;59.20;98855.44;4992880;28;20503;-62
2022/11/04 10:47:05;;;;;;;8.75;3.83;;;;;;;14.63;58.88;98864.94;4992333;28;20084;-61
2022/11/04 10:49:50;;;;;;;5.13;3.23;;;;;;;14.61;58.75;98862.41;4993082;28;20399;-61
2022/11/04 10:52:37;;;;;;;9.35;3.78;;;;;;;14.68;59.53;98865.34;4992872;28;20290;-60
2022/11/04 10:55:25;;;;;;;7.88;3.80;;;;;;;14.69;59.67;98873.19;4975445;28;20043;-61
2022/11/04 10:57:56;;;;;;;8.07;3.40;;;;;;;14.87;61.22;98871.72;4992597;28;20054;-62
2022/11/04 11:00:39;;;;;;;5.93;3.42;;;;;;;15.03;60.70;98872.00;4992819;28;20095;-61
2022/11/04 11:03:30;;;;;;;4.53;3.25;;;;;;;15.26;60.08;98878.84;4992853;28;20557;-61
2022/11/04 11:06:13;;;;;;;6.80;3.45;;;;;;;15.44;59.43;98884.28;4992287;28;20054;-61
2022/11/04 11:08:41;;;;;;;6.40;3.40;;;;;;;15.59;59.38;98880.22;4992931;28;20058;-62
2022/11/04 11:11:08;;;;;;;8.55;3.10;;;;;;;15.72;59.41;98884.38;4975156;28;20062;-61
2022/11/04 11:13:41;;;;;;;7.43;3.45;;;;;;;15.84;58.93;98893.00;4992510;28;20097;-59
2022/11/04 11:16:19;;;;;;;4.82;3.10;;;;;;;15.93;58.25;98884.22;4974812;28;20086;-61
2022/11/04 11:19:11;;;;;;;6.90;3.75;;;;;;;16.00;57.57;98887.97;4975141;28;20117;-62
2022/11/04 11:21:49;;;;;;;5.47;3.35;;;;;;;16.14;58.13;98893.81;4992113;28;20046;-61
2022/11/04 11:24:29;;;;;;;7.03;3.40;;;;;;;16.37;59.29;98896.13;4974979;28;20046;-61
2022/11/04 11:26:59;;;;;;;3.80;2.63;;;;;;;16.75;60.13;98904.03;4991806;28;20097;-61
2022/11/04 11:29:30;;;;;;;7.10;2.78;;;;;;;17.15;58.32;98897.50;4975052;28;20462;-61
2022/11/04 11:31:59;;;;;;;6.32;2.60;;;;;;;17.56;58.38;98896.16;4990896;28;20046;-62
2022/11/04 11:34:31;;;;;;;6.35;3.08;;;;;;;17.98;57.30;98897.28;4992045;28;20050;-61
2022/11/04 11:37:02;;;;;;;3.63;2.60;;;;;;;18.49;59.03;98899.25;4991741;28;20050;-63
2022/11/04 11:39:31;;;;;;;5.95;2.55;;;;;;;19.09;58.22;98891.28;4991956;28;20380;-62
2022/11/04 11:42:10;;;;;;;7.80;3.00;;;;;;;19.65;54.22;98891.50;4992074;28;20101;-61
2022/11/04 11:44:46;;;;;;;7.97;3.00;;;;;;;20.07;52.38;98901.31;4992179;28;20137;-61
2022/11/04 11:47:21;;;;;;;8.50;3.05;;;;;;;20.28;51.21;98892.72;4991931;28;20086;-61
2022/11/04 11:50:14;;;;;;;5.30;2.92;;;;;;;20.36;51.16;98883.84;4991811;28;20573;-61
2022/11/04 11:52:42;;;;;;;3.85;2.42;;;;;;;20.43;50.79;98890.16;4991897;28;20057;-61
2022/11/04 11:55:17;;;;;;;5.68;2.92;;;;;;;20.35;49.37;98892.88;4974454;28;20097;-62
2022/11/04 11:57:54;;;;;;;6.32;3.17;;;;;;;20.28;49.15;98892.72;4991474;28;20082;-62
2022/11/04 12:00:48;;;;;;;8.43;3.05;;;;;;;20.20;48.91;98903.44;4991674;28;20050;-61
2022/11/04 12:03:36;;;;;;;6.47;3.30;;;;;;;19.92;48.42;98916.16;4975164;28;20046;-61
2022/11/04 12:07:07;;;;;;;4.72;2.60;;;;;;;19.54;48.91;98913.16;4976798;28;20050;-61
2022/11/04 12:10:12;;;;;;;6.28;2.75;;;;;;;19.08;48.46;98909.13;4990130;28;20136;-61
2022/11/04 12:13:09;;;;;;;5.82;2.78;;;;;;;18.85;49.38;98917.72;4991823;28;20113;-61
2022/11/04 12:16:15;;;;;;;4.68;2.83;;;;;;;18.74;51.02;98912.69;4991509;28;20054;-61
2022/11/04 12:18:58;;;;;;;8.05;3.25;;;;;;;18.94;51.77;98909.72;4991234;28;20133;-61
2022/11/04 12:21:32;;;;;;;;;;;;;;;19.24;53.62;98908.31;4992222;28;20096;-61
2022/11/04 12:24:20;;;;;;;6.18;3.20;;;;;;;19.72;52.61;98909.50;4991353;28;19922;-61
2022/11/04 12:27:06;;;;;;;5.00;2.63;;;;;;;20.08;50.59;98908.31;4991477;28;20105;-61
2022/11/04 12:30:07;;;;;;;6.63;2.70;;;;;;;20.28;49.78;98906.94;4991428;28;20054;-60